Latest Weather Observations for Shepparton

IDV60801

Issued at 8:02 am EST Monday 25 July 2016 (issued every 30 minutes, with the page automatically refreshed every 10 minutes)

About weather observations | Map of weather stations | Latest weather observations for VIC | Other Formats
Station Details ID: 081125 Name: SHEPPARTON AIRPORT Lat: -36.43 Lon: 145.39 Height: 113.9 m
Data from the previous 72 hours. | See also: Recent months at Shepparton
Date/Time
EST
Temp
°C
App
Temp
°C
Dew
Point
°C
Rel
Hum
%
Delta-T
°C
Wind Press
QNH
hPa
Press
MSL
hPa
Rain since
9am
mm
Dir  Spd
km/h
Gust
km/h
Spd
kts
Gust
kts
25/08:00am 6.5 4.0 6.4 99 0.0 NW 9 13 5 7 1011.7 1011.9 4.4
25/07:30am 6.4 3.1 6.3 99 0.0 WNW 13 19 7 10 1011.4 1011.6 4.4
25/07:00am 6.1 2.7 6.0 99 0.0 NNW 13 17 7 9 1011.0 1011.2 4.4
25/06:30am 5.9 2.1 5.8 99 0.0 NW 15 22 8 12 1010.5 1010.7 4.4
25/06:00am 5.9 3.2 5.8 99 0.0 NW 9 13 5 7 1010.5 1010.7 4.4
25/05:30am 5.9 3.6 5.8 99 0.0 NW 7 13 4 7 1009.7 1010.0 4.4
25/05:00am 6.1 3.1 6.0 99 0.0 WNW 11 13 6 7 1009.5 1009.8 4.4
25/04:30am 6.8 3.6 6.7 99 0.0 W 13 19 7 10 1009.0 1009.3 4.4
25/04:00am 6.8 3.6 6.7 99 0.0 W 13 19 7 10 1008.5 1008.7 4.4
25/03:54am 6.8 3.6 6.7 99 0.0 W 13 19 7 10 1008.4 1008.6 4.4
25/03:39am 6.7 3.8 6.6 99 0.0 NW 11 15 6 8 1008.2 1008.4 4.4
25/03:30am 6.6 3.3 6.5 99 0.0 NW 13 19 7 10 1008.2 1008.4 4.4
25/03:26am 6.6 3.3 6.5 99 0.0 NW 13 19 7 10 1008.1 1008.3 4.4
25/03:09am 6.5 4.0 6.4 99 0.0 NNW 9 15 5 8 1008.1 1008.3 4.4
25/03:08am 6.4 3.8 6.3 99 0.0 NNW 9 15 5 8 1008.1 1008.3 4.4
25/03:00am 6.4 4.2 6.3 99 0.0 N 7 11 4 6 1008.2 1008.4 4.2
25/02:50am 6.3 3.7 6.2 99 0.0 N 9 13 5 7 1008.0 1008.2 4.2
25/02:30am 6.0 3.7 5.9 99 0.0 N 7 9 4 5 1007.9 1008.1 4.2
25/02:00am 6.1 3.9 6.0 99 0.0 N 7 11 4 6 1008.0 1008.2 4.2
25/01:40am 6.1 3.1 6.0 99 0.0 N 11 15 6 8 1007.9 1008.1 4.2
25/01:30am 6.2 4.2 6.1 99 0.0 N 6 11 3 6 1007.9 1008.1 4.0
25/01:22am 6.2 4.0 6.1 99 0.0 NNW 7 9 4 5 1008.0 1008.2 4.0
25/01:00am 6.4 3.8 6.3 99 0.0 NNW 9 11 5 6 1007.9 1008.1 3.8
25/12:30am 6.6 3.3 6.2 97 0.2 NNW 13 17 7 9 1008.0 1008.2 3.6
25/12:00am 6.8 2.7 6.2 96 0.3 NW 17 24 9 13 1008.2 1008.4 2.6
 
Date/Time
EST
Temp
°C
App
Temp
°C
Dew
Point
°C
Rel
Hum
%
Delta-T
°C
Wind Press
QNH
hPa
Press
MSL
hPa
Rain since
9am
mm
Dir  Spd
km/h
Gust
km/h
Spd
kts
Gust
kts
24/11:30pm 6.5 3.9 5.9 96 0.3 NNW 9 13 5 7 1008.5 1008.7 2.2
24/11:00pm 6.4 3.0 5.8 96 0.3 N 13 15 7 8 1008.2 1008.4 2.2
24/10:30pm 6.4 2.9 5.5 94 0.4 NNW 13 19 7 10 1008.1 1008.3 2.2
24/10:00pm 6.9 2.7 5.5 91 0.6 NNW 17 22 9 12 1008.3 1008.5 2.2
24/09:30pm 6.8 3.0 5.9 94 0.4 NNW 15 22 8 12 1008.4 1008.6 2.2
24/09:00pm 7.1 3.1 6.5 96 0.3 NW 17 20 9 11 1008.5 1008.7 2.2
24/08:30pm 7.2 2.9 6.8 97 0.2 NW 19 28 10 15 1008.4 1008.6 2.2
24/08:00pm 7.4 3.4 6.8 96 0.3 NNW 17 22 9 12 1008.1 1008.3 1.2
24/07:30pm 7.5 4.3 6.8 95 0.3 N 13 19 7 10 1008.1 1008.3 0.6
24/07:00pm 7.7 3.1 6.6 93 0.5 NNW 20 39 11 21 1007.9 1008.1 0.6
24/06:56pm 7.7 1.6 6.6 93 0.5 NNW 28 46 15 25 1007.9 1008.1 0.6
24/06:48pm 8.2 2.5 6.7 90 0.7 N 26 44 14 24 1008.1 1008.3 0.2
24/06:30pm 8.2 4.2 6.7 90 0.7 NNE 17 22 9 12 1007.5 1007.7 0.2
24/06:00pm 8.4 4.4 6.7 89 0.8 N 17 22 9 12 1007.4 1007.6 0.2
24/05:30pm 8.8 5.0 7.4 91 0.7 NNE 17 20 9 11 1007.0 1007.2 0.2
24/05:00pm 9.8 6.6 6.9 82 1.4 NNE 13 20 7 11 1007.2 1007.4 0.2
24/04:30pm 10.7 6.7 6.6 76 1.9 NNE 17 24 9 13 1007.2 1007.4 0.2
24/04:00pm 10.9 6.5 6.6 75 2.0 N 19 26 10 14 1007.6 1007.8 0.2
24/03:30pm 10.2 5.6 6.5 78 1.7 N 20 28 11 15 1008.1 1008.3 0.2
24/03:00pm 10.3 5.3 6.6 78 1.7 N 22 30 12 16 1008.4 1008.6 0.2
24/02:30pm 10.4 5.4 6.5 77 1.8 NNE 22 33 12 18 1008.7 1009.0 0.2
24/02:00pm 9.3 4.8 6.2 81 1.4 NE 19 24 10 13 1009.3 1009.6 0.2
24/01:30pm 8.8 4.1 5.9 82 1.3 N 20 28 11 15 1010.0 1010.3 0.2
24/01:00pm 8.6 4.6 6.6 87 0.9 NNE 17 26 9 14 1010.7 1010.9 0.2
24/12:30pm 7.4 2.6 5.7 89 0.8 NE 20 28 11 15 1011.2 1011.4 0.2
24/12:00pm 6.7 2.3 5.0 89 0.7 NNE 17 24 9 13 1012.1 1012.3 0.0
24/11:30am 6.6 2.2 4.9 89 0.7 NE 17 24 9 13 1012.7 1012.9 0.0
24/11:00am 6.5 2.5 4.7 88 0.8 NE 15 20 8 11 1013.1 1013.3 0.0
24/10:30am 5.7 2.0 4.3 91 0.6 NE 13 19 7 10 1013.3 1013.5 0.0
24/10:00am 4.8 1.0 3.9 94 0.4 NE 13 15 7 8 1013.6 1013.8 0.0
24/09:30am 4.2 1.1 3.6 96 0.2 NE 9 15 5 8 1013.6 1013.8 0.0
24/09:00am 3.5 0.3 3.1 97 0.2 NE 9 13 5 7 1013.6 1013.8 0.2
24/08:30am 2.8 -0.9 2.5 98 0.1 NE 11 15 6 8 1013.6 1013.8 0.2
24/08:00am 2.5 -0.8 2.4 99 0.0 NNE 9 13 5 7 1013.6 1013.8 0.2
24/07:30am 2.2 -0.8 2.1 99 0.0 NE 7 11 4 6 1013.8 1014.0 0.2
24/07:00am 1.8 -1.6 1.7 99 0.0 NE 9 13 5 7 1013.5 1013.7 0.2
24/06:30am 1.5 -1.6 1.4 99 0.0 NE 7 11 4 6 1013.5 1013.7 0.0
24/06:00am 1.1 -2.1 1.0 99 0.0 NNE 7 9 4 5 1013.5 1013.7 0.0
24/05:30am 0.8 -1.1 0.7 99 0.0 CALM 0 6 0 3 1013.2 1013.4 0.0
24/05:00am 0.9 -1.7 0.8 99 0.0 NE 4 9 2 5 1013.2 1013.4 0.0
24/04:30am 0.7 -1.2 0.6 99 0.0 CALM 0 0 0 0 1013.5 1013.7 0.0
24/04:00am 1.3 -1.6 1.2 99 0.0 NE 6 7 3 4 1013.8 1014.0 0.0
24/03:30am 1.4 -0.4 1.3 99 0.0 CALM 0 0 0 0 1014.2 1014.4 0.0
24/03:00am 1.6 -0.2 1.5 99 0.0 CALM 0 0 0 0 1014.3 1014.5 0.0
24/02:30am 2.0 -0.8 1.9 99 0.0 N 6 7 3 4 1014.4 1014.6 0.0
24/02:00am 1.8 -1.1 1.7 99 0.0 NNW 6 7 3 4 1014.3 1014.5 0.0
24/01:30am 2.4 -0.9 2.3 99 0.0 NNW 9 13 5 7 1014.4 1014.6 0.0
24/01:00am 2.2 -1.2 2.1 99 0.0 N 9 9 5 5 1014.2 1014.4 0.0
24/12:30am 2.4 0.7 1.8 96 0.2 CALM 0 0 0 0 1014.4 1014.6 0.0
24/12:00am 2.8 1.1 1.6 92 0.5 CALM 0 0 0 0 1014.3 1014.5 0.0
 
Date/Time
EST
Temp
°C
App
Temp
°C
Dew
Point
°C
Rel
Hum
%
Delta-T
°C
Wind Press
QNH
hPa
Press
MSL
hPa
Rain since
9am
mm
Dir  Spd
km/h
Gust
km/h
Spd
kts
Gust
kts
23/11:30pm 3.4 0.7 2.4 93 0.4 NW 6 9 3 5 1014.4 1014.6 0.0
23/11:00pm 3.9 2.2 2.1 88 0.7 CALM 0 0 0 0 1014.2 1014.4 0.0
23/10:30pm 4.1 1.1 2.0 86 0.8 WSW 7 9 4 5 1014.2 1014.4 0.0
23/10:00pm 5.0 1.7 2.7 85 0.9 WNW 9 11 5 6 1014.4 1014.6 0.0
23/09:30pm 5.9 1.8 2.5 79 1.4 WNW 13 19 7 10 1014.3 1014.5 0.0
23/09:00pm 6.0 2.0 2.6 79 1.4 W 13 19 7 10 1014.1 1014.3 0.0
23/08:30pm 6.5 2.1 2.8 77 1.5 WNW 15 22 8 12 1014.0 1014.2 0.0
23/08:00pm 7.0 2.2 2.7 74 1.8 WNW 17 20 9 11 1013.6 1013.8 0.0
23/07:30pm 7.5 2.7 2.6 71 2.1 W 17 24 9 13 1013.4 1013.6 0.0
23/07:00pm 7.9 3.5 2.6 69 2.2 WNW 15 20 8 11 1012.9 1013.1 0.0
23/06:30pm 8.3 3.1 2.5 67 2.4 WNW 19 22 10 12 1012.3 1012.5 0.0
23/06:00pm 8.8 3.4 2.6 65 2.6 WNW 20 30 11 16 1012.1 1012.3 0.0
23/05:30pm 9.1 3.8 2.9 65 2.7 WNW 20 28 11 15 1011.6 1011.8 0.0
23/05:00pm 9.2 3.9 3.0 65 2.7 WNW 20 32 11 17 1011.5 1011.7 0.0
23/04:30pm 9.8 3.6 1.9 58 3.3 WNW 24 37 13 20 1011.1 1011.3 0.0
23/04:00pm 10.3 4.1 1.9 56 3.6 W 24 35 13 19 1010.7 1010.9 0.0
23/03:30pm 10.4 3.6 1.0 52 3.9 W 26 39 14 21 1010.2 1010.4 0.0
23/03:00pm 10.4 3.3 1.2 53 3.8 WSW 28 39 15 21 1009.7 1010.0 0.0
23/02:30pm 10.5 3.1 2.1 56 3.6 WSW 30 39 16 21 1009.4 1009.7 0.0
23/02:00pm 10.2 3.1 1.3 54 3.7 WSW 28 41 15 22 1009.1 1009.4 0.0
23/01:30pm 9.6 2.1 1.0 55 3.5 WSW 30 41 16 22 1009.1 1009.4 0.0
23/01:00pm 9.7 3.1 2.3 60 3.2 WSW 26 35 14 19 1009.1 1009.4 0.0
23/12:30pm 10.0 1.1 0.9 53 3.8 WSW 37 50 20 27 1009.0 1009.3 0.0
23/12:00pm 9.9 2.4 1.3 55 3.6 WSW 30 41 16 22 1009.0 1009.3 0.0
23/11:42am 9.7 2.3 1.6 57 3.4 WSW 30 52 16 28 1009.1 1009.4 0.0
23/11:30am 9.7 2.2 3.2 64 2.8 SW 32 43 17 23 1009.0 1009.3 0.0
23/11:00am 8.9 1.0 2.5 64 2.7 WSW 33 50 18 27 1008.7 1009.0 0.0
23/10:30am 9.0 1.5 3.4 68 2.4 WSW 32 52 17 28 1008.3 1008.5 0.0
23/10:25am 8.9 1.8 3.5 69 2.3 WSW 30 48 16 26 1008.2 1008.4 0.0
23/10:00am 8.7 1.6 3.3 69 2.3 WSW 30 44 16 24 1007.5 1007.7 0.0
23/09:47am 8.5 1.6 2.7 67 2.5 WSW 28 46 15 25 1007.1 1007.3 0.0
23/09:30am 8.0 1.7 4.0 76 1.7 WSW 26 37 14 20 1006.7 1006.9 0.0
23/09:00am 7.3 -0.2 3.5 77 1.6 WSW 32 54 17 29 1006.3 1006.5 18.2
23/08:58am 7.4 0.9 4.9 84 1.1 WSW 28 54 15 29 1006.3 1006.5 18.2
23/08:30am 7.9 2.0 5.9 87 0.9 W 26 37 14 20 1005.3 1005.5 17.8
23/08:00am 7.3 1.7 5.6 89 0.8 W 24 33 13 18 1004.5 1004.7 17.8
23/07:30am 7.0 1.8 5.6 91 0.6 W 22 32 12 17 1004.0 1004.2 17.8
23/07:00am 7.5 2.0 6.0 90 0.7 WNW 24 39 13 21 1003.5 1003.7 17.8
23/06:30am 7.6 1.4 6.1 90 0.7 W 28 43 15 23 1002.6 1002.8 17.8
23/06:22am 7.7 1.1 6.0 89 0.8 W 30 48 16 26 1002.4 1002.6 17.8
23/06:00am 7.8 1.2 5.9 88 0.9 W 30 43 16 23 1001.9 1002.1 17.8
23/05:30am 7.9 0.9 5.9 87 0.9 W 32 52 17 28 1001.2 1001.3 17.8
23/05:24am 7.9 1.3 5.9 87 0.9 WNW 30 50 16 27 1000.9 1001.1 17.8
23/05:00am 7.7 1.8 5.7 87 0.9 WNW 26 37 14 20 1000.6 1000.8 17.8
23/04:47am 7.8 1.5 5.6 86 1.0 WNW 28 46 15 25 1000.5 1000.7 17.8
23/04:30am 7.8 1.8 5.4 85 1.1 WNW 26 48 14 26 1000.2 1000.4 17.8
23/04:00am 7.9 1.5 5.2 83 1.2 WNW 28 46 15 25 999.3 999.5 17.8
23/03:33am 7.8 1.0 5.3 84 1.1 WNW 30 48 16 26 999.1 999.3 17.8
23/03:30am 7.7 0.5 5.2 84 1.1 WNW 32 48 17 26 999.1 999.3 17.8
23/03:00am 8.1 1.0 5.4 83 1.2 WNW 32 50 17 27 998.8 999.0 17.8
23/02:32am 8.3 1.1 5.8 84 1.1 WNW 33 54 18 29 998.6 998.8 17.8
23/02:30am 8.3 1.1 5.8 84 1.1 WNW 33 46 18 25 998.6 998.8 17.8
23/02:00am 8.4 1.2 5.7 83 1.2 WNW 33 44 18 24 998.5 998.7 17.8
23/01:44am 8.7 1.7 6.0 83 1.2 WNW 32 50 17 27 998.2 998.4 17.8
23/01:30am 8.7 2.2 6.5 86 1.0 WNW 30 44 16 24 998.2 998.4 17.8
23/01:00am 8.6 1.1 6.4 86 1.0 W 35 56 19 30 998.4 998.6 17.8
23/12:55am 8.7 0.1 6.7 87 0.9 W 41 59 22 32 998.3 998.5 17.8
23/12:50am 9.3 0.8 7.1 86 1.0 WNW 41 61 22 33 998.4 998.6 17.8
23/12:30am 9.9 3.4 8.0 88 0.9 WNW 32 50 17 27 997.8 998.0 17.6
23/12:08am 9.8 4.2 8.6 92 0.6 NW 28 46 15 25 997.8 998.0 17.6
23/12:00am 9.6 5.1 8.5 93 0.5 NW 22 35 12 19 997.9 998.1 17.6
 
Date/Time
EST
Temp
°C
App
Temp
°C
Dew
Point
°C
Rel
Hum
%
Delta-T
°C
Wind Press
QNH
hPa
Press
MSL
hPa
Rain since
9am
mm
Dir  Spd
km/h
Gust
km/h
Spd
kts
Gust
kts
22/11:30pm 9.4 5.2 8.3 93 0.5 NW 20 28 11 15 997.8 998.0 17.6
22/11:00pm 9.9 4.2 8.5 91 0.7 WNW 28 44 15 24 998.1 998.3 17.4
22/10:30pm 10.4 6.1 9.2 92 0.6 NW 22 37 12 20 997.9 998.1 17.2
22/10:00pm 9.8 7.3 9.7 99 0.1 NW 13 19 7 10 997.9 998.1 17.0
22/09:30pm 9.8 7.7 9.7 99 0.1 NW 11 17 6 9 998.2 998.4 17.0
22/09:00pm 9.8 6.5 9.7 99 0.1 WNW 17 24 9 13 998.7 998.9 16.8
22/08:30pm 9.5 6.9 9.4 99 0.0 WNW 13 19 7 10 999.0 999.2 15.6
22/08:00pm 9.6 6.2 9.3 98 0.2 WNW 17 24 9 13 998.8 999.0 15.0
22/07:30pm 10.3 5.0 8.6 89 0.8 W 26 39 14 21 998.7 998.9 14.0
22/07:00pm 11.6 7.9 9.3 86 1.2 NW 19 24 10 13 997.9 998.1 13.4
22/06:30pm 11.8 8.5 9.5 86 1.2 NW 17 22 9 12 997.9 998.1 13.4
22/06:00pm 12.4 8.8 9.8 84 1.3 NW 19 30 10 16 997.9 998.1 13.4
22/05:30pm 12.6 9.0 9.8 83 1.4 NW 19 24 10 13 997.6 997.8 13.4
22/05:00pm 13.0 9.8 10.0 82 1.6 WNW 17 26 9 14 998.0 998.2 13.4
22/04:30pm 13.5 9.7 9.7 78 2.0 WNW 20 32 11 17 998.1 998.3 13.4
22/04:00pm 13.5 9.6 9.6 77 2.0 NW 20 28 11 15 998.0 998.2 13.4
22/03:30pm 13.3 9.4 9.4 77 2.0 NW 20 30 11 16 998.3 998.5 13.4
22/03:00pm 12.8 9.0 9.1 78 1.9 WNW 19 33 10 18 998.7 998.9 13.4
22/02:30pm 12.5 8.2 9.3 81 1.6 WNW 22 30 12 16 998.9 999.1 13.4
22/02:00pm 12.3 7.6 9.1 81 1.6 WNW 24 33 13 18 998.8 999.0 13.4
22/01:30pm 11.9 7.3 9.8 87 1.1 WNW 24 33 13 18 999.0 999.2 13.4
22/01:00pm 11.9 6.6 10.0 88 1.0 WNW 28 41 15 22 999.5 999.7 13.0
22/12:33pm 13.0 7.7 9.8 81 1.6 WNW 28 46 15 25 1000.2 1000.4 11.6
22/12:30pm 13.2 8.4 10.2 82 1.6 WNW 26 46 14 25 1000.2 1000.4 11.4
22/12:00pm 13.4 9.6 12.3 93 0.6 W 24 32 13 17 1000.8 1001.0 11.2
22/11:30am 14.5 9.9 12.2 86 1.3 W 28 37 15 20 1001.1 1001.2 10.4
22/11:00am 14.5 12.1 13.7 95 0.5 W 19 28 10 15 1001.5 1001.7 10.4
22/10:30am 14.3 11.8 14.0 98 0.2 WNW 20 30 11 16 1001.3 1001.4 10.2
22/10:12am 14.2 11.3 14.0 99 0.1 W 22 32 12 17 1001.3 1001.4 9.6
22/10:00am 14.1 10.4 13.9 99 0.1 W 26 37 14 20 1001.1 1001.2 9.4
22/09:55am 14.1 10.4 13.9 99 0.1 W 26 37 14 20 1001.3 1001.4 8.6
22/09:54am 14.1 10.4 13.9 99 0.1 W 26 37 14 20 1001.3 1001.4 8.4
22/09:51am 14.2 11.0 14.2 100 0.0 WNW 24 37 13 20 1001.3 1001.4 7.8
22/09:30am 14.3 8.8 13.7 96 0.3 WNW 35 61 19 33 1001.5 1001.7 4.2
22/09:29am 14.8 9.9 13.8 94 0.6 WNW 32 59 17 32 1001.5 1001.7 2.8
22/09:00am 17.0 12.8 16.2 95 0.5 NNW 33 44 18 24 1000.8 1001.0 1.4
22/08:41am 16.6 13.7 16.0 96 0.4 NNW 26 37 14 20 1001.1 1001.2 1.2
22/08:30am 16.5 14.0 16.2 98 0.2 NNW 24 33 13 18 1000.9 1001.1 1.2
22/08:13am 16.4 13.9 16.1 98 0.2 NNW 24 33 13 18 1001.4 1001.5 0.8

Other Formats:

Comma delimited format used in spreadsheet applications
http://www.bom.gov.au/fwo/IDV60801/IDV60801.94875.axf

JavaScript Object Notation format (JSON) in row-major order
http://www.bom.gov.au/fwo/IDV60801/IDV60801.94875.json